createdAt,value
2024-02-09T00:00:24.415Z,96522.81
2024-02-09T00:02:50.852Z,96514.38
2024-02-09T00:05:18.504Z,96514.69
2024-02-09T00:07:52.727Z,96513.13
2024-02-09T00:10:20.097Z,96514.94
2024-02-09T00:12:49.277Z,96525.66
2024-02-09T00:15:19.342Z,96516.75
2024-02-09T00:17:46.014Z,96515.88
2024-02-09T00:20:13.212Z,96512.69
2024-02-09T00:22:40.329Z,96491.72
2024-02-09T00:25:11.320Z,96493.97
2024-02-09T00:27:41.236Z,96482.25
2024-02-09T00:30:11.795Z,96476.41
2024-02-09T00:32:38.443Z,96468.94
2024-02-09T00:35:05.526Z,96478.19
2024-02-09T00:37:32.477Z,96474.34
2024-02-09T00:39:59.103Z,96471.66
2024-02-09T00:42:25.708Z,96476.72
2024-02-09T00:44:52.097Z,96475.59
2024-02-09T00:47:18.725Z,96461.72
2024-02-09T00:49:46.530Z,96476.72
2024-02-09T00:52:13.773Z,96464.44
2024-02-09T00:54:40.472Z,96469.38
2024-02-09T00:57:07.052Z,96460.47
2024-02-09T00:59:34.655Z,96470.50
2024-02-09T01:02:05.585Z,96469.72
2024-02-09T01:04:36.798Z,96467.03
2024-02-09T01:07:04.941Z,96472.09
2024-02-09T01:09:34.839Z,96470.50
2024-02-09T01:12:05.970Z,96480.13
2024-02-09T01:14:50.762Z,96475.06
2024-02-09T01:17:35.646Z,96471.06
2024-02-09T01:20:20.445Z,96475.25
2024-02-09T01:23:05.311Z,96468.25
2024-02-09T01:25:50.187Z,96481.31
2024-02-09T01:28:35.158Z,96476.25
2024-02-09T01:31:20.117Z,96467.78
2024-02-09T01:34:05.180Z,96463.50
2024-02-09T01:36:50.436Z,96474.81
2024-02-09T01:39:35.354Z,96470.97
2024-02-09T01:42:20.882Z,96474.81
2024-02-09T01:45:05.610Z,96478.75
2024-02-09T01:47:51.089Z,96494.63
2024-02-09T01:50:36.251Z,96483.81
2024-02-09T01:53:21.727Z,96487.22
2024-02-09T01:56:06.650Z,96472.41
2024-02-09T01:58:51.663Z,96478.19
2024-02-09T02:01:37.092Z,96475.03
2024-02-09T02:04:22.315Z,96469.50
2024-02-09T02:07:07.758Z,96480.69
2024-02-09T02:09:52.567Z,96475.94
2024-02-09T02:12:37.462Z,96465.13
2024-02-09T02:15:22.831Z,96459.59
2024-02-09T02:18:07.717Z,96451.81
2024-02-09T02:20:53.046Z,96456.31
2024-02-09T02:24:00.778Z,96448.19
2024-02-09T02:26:45.612Z,96453.97
2024-02-09T02:29:30.606Z,96440.44
2024-02-09T02:32:15.407Z,96438.06
2024-02-09T02:35:00.400Z,96432.66
2024-02-09T02:37:45.637Z,96428.38
2024-02-09T02:40:30.707Z,96418.69
2024-02-09T02:42:57.424Z,96418.22
2024-02-09T02:45:28.553Z,96422.06
2024-02-09T02:48:13.826Z,96418.91
2024-02-09T02:50:58.775Z,96416.53
2024-02-09T02:53:43.656Z,96411.44
2024-02-09T02:56:28.598Z,96400.19
2024-02-09T02:59:13.496Z,96402.44
2024-02-09T03:01:58.628Z,96392.75
2024-02-09T03:04:25.331Z,96393.09
2024-02-09T03:07:13.612Z,96389.94
2024-02-09T03:09:38.496Z,96390.72
2024-02-09T03:12:05.283Z,96385.31
2024-02-09T03:14:31.806Z,96370.22
2024-02-09T03:16:58.394Z,96373.59
2024-02-09T03:19:24.978Z,96363.91
2024-02-09T03:21:55.721Z,96366.94
2024-02-09T03:24:22.398Z,96370.44
2024-02-09T03:26:49.399Z,96372.34
2024-02-09T03:29:15.893Z,96363.44
2024-02-09T03:31:43.041Z,96365.50
2024-02-09T03:34:09.928Z,96354.66
2024-02-09T03:36:36.537Z,96351.19
2024-02-09T03:39:03.306Z,96356.59
2024-02-09T03:41:29.887Z,96356.59
2024-02-09T03:44:06.038Z,96354.66
2024-02-09T03:46:33.979Z,96353.53
2024-02-09T03:49:00.846Z,96353.53
2024-02-09T03:51:27.648Z,96358.59
2024-02-09T03:53:54.106Z,96352.41
2024-02-09T03:56:20.975Z,96344.72
2024-02-09T03:58:47.903Z,96359.03
2024-02-09T04:01:16.623Z,96344.84
2024-02-09T04:03:43.501Z,96342.16
2024-02-09T04:06:10.251Z,96340.66
2024-02-09T04:08:37.165Z,96329.84
2024-02-09T04:11:03.892Z,96335.25
2024-02-09T04:13:30.644Z,96329.06
2024-02-09T04:16:01.329Z,96329.75
2024-02-09T04:18:30.453Z,96328.25
2024-02-09T04:20:57.453Z,96332.88
2024-02-09T04:23:24.164Z,96328.25
2024-02-09T04:25:50.700Z,96328.25
2024-02-09T04:28:18.899Z,96329.84
2024-02-09T04:30:47.414Z,96324.41
2024-02-09T04:33:16.771Z,96313.59
2024-02-09T04:35:43.634Z,96317.88
2024-02-09T04:38:10.316Z,96324.06
2024-02-09T04:40:37.454Z,96319.00
2024-02-09T04:43:06.379Z,96323.28
2024-02-09T04:45:33.303Z,96321.38
2024-02-09T04:48:00.017Z,96322.16
2024-02-09T04:50:26.721Z,96316.06
2024-02-09T04:52:53.388Z,96328.59
2024-02-09T04:55:19.955Z,96320.22
2024-02-09T04:57:46.776Z,96324.59
2024-02-09T05:00:13.717Z,96321.88
2024-02-09T05:02:45.646Z,96324.94
2024-02-09T05:05:13.227Z,96321.00
2024-02-09T05:07:40.049Z,96328.00
2024-02-09T05:10:06.946Z,96328.00
2024-02-09T05:12:33.641Z,96323.69
2024-02-09T05:15:00.465Z,96325.63
2024-02-09T05:17:27.371Z,96311.66
2024-02-09T05:19:58.628Z,96308.59
2024-02-09T05:22:26.219Z,96300.47
2024-02-09T05:24:52.945Z,96297.09
2024-02-09T05:27:22.104Z,96305.22
2024-02-09T05:29:49.229Z,96300.25
2024-02-09T05:32:16.080Z,96296.84
2024-02-09T05:34:47.456Z,96295.81
2024-02-09T05:37:15.298Z,96298.16
2024-02-09T05:39:44.179Z,96288.91
2024-02-09T05:42:10.783Z,96295.56
2024-02-09T05:44:37.464Z,96283.69
2024-02-09T05:47:04.409Z,96285.00
2024-02-09T05:49:31.070Z,96282.78
2024-02-09T05:51:58.059Z,96284.38
2024-02-09T05:54:24.737Z,96278.59
2024-02-09T05:56:51.275Z,96287.16
2024-02-09T05:59:17.881Z,96280.28
2024-02-09T06:04:32.240Z,96276.88
2024-02-09T06:06:58.912Z,96280.34
2024-02-09T06:09:25.788Z,96272.78
2024-02-09T06:11:52.398Z,96277.50
2024-02-09T06:14:18.950Z,96269.81
2024-02-09T06:16:48.591Z,96278.38
2024-02-09T06:19:15.256Z,96272.28
2024-02-09T06:21:42.124Z,96279.59
2024-02-09T06:24:08.695Z,96282.75
2024-02-09T06:26:35.609Z,96298.66
2024-02-09T06:29:04.768Z,96291.75
2024-02-09T06:31:31.465Z,96296.38
2024-02-09T06:34:00.348Z,96292.88
2024-02-09T06:36:27.467Z,96295.69
2024-02-09T06:38:55.085Z,96293.53
2024-02-09T06:41:22.253Z,96295.88
2024-02-09T06:43:49.292Z,96293.16
2024-02-09T06:46:19.022Z,96291.59
2024-02-09T06:48:47.676Z,96292.72
2024-02-09T06:51:19.877Z,96303.91
2024-02-09T06:53:46.318Z,96295.41
2024-02-09T06:56:13.231Z,96307.41
2024-02-09T06:58:41.109Z,96302.69
2024-02-09T07:01:12.756Z,96304.97
2024-02-09T07:03:40.559Z,96304.97
2024-02-09T07:06:09.032Z,96294.56
2024-02-09T07:08:41.262Z,96293.00
2024-02-09T07:11:15.291Z,96304.25
2024-02-09T07:13:43.445Z,96311.66
2024-02-09T07:16:10.684Z,96324.53
2024-02-09T07:18:42.129Z,96322.72
2024-02-09T07:21:10.939Z,96320.09
2024-02-09T07:23:37.855Z,96317.31
2024-02-09T07:26:06.189Z,96312.91
2024-02-09T07:28:33.512Z,96312.13
2024-02-09T07:31:00.236Z,96321.41
2024-02-09T07:33:27.433Z,96317.56
2024-02-09T07:35:54.029Z,96316.66
2024-02-09T07:38:20.514Z,96311.94
2024-02-09T07:40:48.095Z,96311.25
2024-02-09T07:43:15.311Z,96308.47
2024-02-09T07:45:41.940Z,96303.38
2024-02-09T07:48:08.902Z,96304.50
2024-02-09T07:50:43.009Z,96303.38
2024-02-09T07:53:09.925Z,96300.34
2024-02-09T07:55:36.530Z,96294.13
2024-02-09T07:58:03.232Z,96301.78
2024-02-09T08:00:30.184Z,96299.09
2024-02-09T08:02:56.644Z,96304.19
2024-02-09T08:05:23.162Z,96288.78
2024-02-09T08:07:50.035Z,96296.56
2024-02-09T08:10:18.430Z,96281.88
2024-02-09T08:12:45.874Z,96282.75
2024-02-09T08:15:12.875Z,96286.34
2024-02-09T08:17:40.537Z,96282.25
2024-02-09T08:20:08.041Z,96291.25
2024-02-09T08:22:35.608Z,96292.56
2024-02-09T08:25:03.146Z,96300.06
2024-02-09T08:27:29.762Z,96296.75
2024-02-09T08:29:58.787Z,96298.75
2024-02-09T08:32:25.440Z,96299.19
2024-02-09T08:34:52.093Z,96294.22
2024-02-09T08:37:20.449Z,96300.84
2024-02-09T08:39:47.908Z,96301.38
2024-02-09T08:42:14.808Z,96302.66
2024-02-09T08:44:42.062Z,96300.38
2024-02-09T08:47:12.042Z,96302.41
2024-02-09T08:49:38.854Z,96299.75
2024-02-09T08:52:07.025Z,96301.00
2024-02-09T08:54:36.721Z,96305.34
2024-02-09T08:57:03.379Z,96304.66
2024-02-09T08:59:29.862Z,96303.59
2024-02-09T09:01:56.591Z,96297.81
2024-02-09T09:04:23.318Z,96301.75
2024-02-09T09:06:49.959Z,96300.59
2024-02-09T09:09:16.667Z,96296.41
2024-02-09T09:11:43.575Z,96311.25
2024-02-09T09:14:11.981Z,96301.38
2024-02-09T09:16:39.762Z,96299.22
2024-02-09T09:19:09.989Z,96302.53
2024-02-09T09:21:39.464Z,96295.69
2024-02-09T09:24:06.994Z,96299.00
2024-02-09T09:26:33.667Z,96300.72
2024-02-09T09:29:01.440Z,96301.63
2024-02-09T09:31:31.137Z,96296.34
2024-02-09T09:33:58.135Z,96288.72
2024-02-09T09:36:32.221Z,96284.28
2024-02-09T09:39:06.851Z,96290.63
2024-02-09T09:41:42.194Z,96289.91
2024-02-09T09:44:09.002Z,96284.84
2024-02-09T09:46:41.003Z,96285.91
2024-02-09T09:49:10.274Z,96292.94
2024-02-09T09:51:38.337Z,96287.50
2024-02-09T09:54:09.185Z,96282.06
2024-02-09T09:56:37.736Z,96280.91
2024-02-09T09:59:05.233Z,96281.34
2024-02-09T10:01:32.205Z,96278.25
2024-02-09T10:03:58.918Z,96282.53
2024-02-09T10:06:25.834Z,96271.31
2024-02-09T10:08:53.246Z,96269.81
2024-02-09T10:11:19.877Z,96263.28
2024-02-09T10:13:46.336Z,96264.19
2024-02-09T10:16:12.943Z,96260.38
2024-02-09T10:18:39.895Z,96268.22
2024-02-09T10:21:09.852Z,96256.28
2024-02-09T10:23:37.666Z,96267.94
2024-02-09T10:26:06.492Z,96258.25
2024-02-09T10:28:34.682Z,96261.75
2024-02-09T10:31:01.976Z,96262.91
2024-02-09T10:33:28.806Z,96257.06
2024-02-09T10:35:56.675Z,96260.16
2024-02-09T10:38:28.292Z,96259.69
2024-02-09T10:40:56.306Z,96255.41
2024-02-09T10:43:28.628Z,96256.97
2024-02-09T10:45:58.356Z,96250.75
2024-02-09T10:48:39.554Z,96264.81
2024-02-09T10:51:08.702Z,96247.75
2024-02-09T10:53:38.412Z,96254.03
2024-02-09T10:56:08.152Z,96253.28
2024-02-09T10:58:35.278Z,96242.84
2024-02-09T11:01:06.316Z,96240.97
2024-02-09T11:03:33.630Z,96237.88
2024-02-09T11:06:06.012Z,96235.22
2024-02-09T11:08:34.569Z,96225.91
2024-02-09T11:11:05.714Z,96220.06
2024-02-09T11:16:11.005Z,96217.44
2024-02-09T11:18:38.595Z,96217.06
2024-02-09T11:21:12.732Z,96218.59
2024-02-09T11:23:43.634Z,96213.88
2024-02-09T11:26:17.015Z,96214.66
2024-02-09T11:28:44.250Z,96206.09
2024-02-09T11:31:12.409Z,96211.53
2024-02-09T11:33:43.617Z,96205.34
2024-02-09T11:36:10.197Z,96197.97
2024-02-09T11:38:36.854Z,96196.75
2024-02-09T11:41:03.383Z,96196.41
2024-02-09T11:43:32.507Z,96195.19
2024-02-09T11:45:59.502Z,96199.44
2024-02-09T11:48:26.098Z,96195.13
2024-02-09T11:50:54.690Z,96196.66
2024-02-09T11:53:21.458Z,96197.44
2024-02-09T11:55:48.359Z,96194.31
2024-02-09T11:58:15.350Z,96195.81
2024-02-09T12:00:42.809Z,96194.22
2024-02-09T12:03:14.289Z,96194.16
2024-02-09T12:05:44.138Z,96188.28
2024-02-09T12:08:10.719Z,96183.22
2024-02-09T12:10:37.458Z,96174.63
2024-02-09T12:13:06.337Z,96181.59
2024-02-09T12:15:32.879Z,96174.97
2024-02-09T12:18:03.445Z,96176.91
2024-02-09T12:20:30.377Z,96187.81
2024-02-09T12:23:01.676Z,96178.88
2024-02-09T12:25:28.284Z,96184.69
2024-02-09T12:27:59.678Z,96186.25
2024-02-09T12:30:29.554Z,96181.19
2024-02-09T12:33:01.028Z,96171.47
2024-02-09T12:35:32.057Z,96169.53
2024-02-09T12:37:58.804Z,96172.25
2024-02-09T12:40:26.559Z,96169.94
2024-02-09T12:42:56.904Z,96154.47
2024-02-09T12:45:29.518Z,96157.19
2024-02-09T12:47:58.570Z,96159.06
2024-02-09T12:50:28.530Z,96159.78
2024-02-09T12:52:55.768Z,96159.38
2024-02-09T12:55:22.814Z,96154.66
2024-02-09T12:57:50.731Z,96151.00
2024-02-09T13:00:17.596Z,96151.66
2024-02-09T13:02:44.307Z,96159.78
2024-02-09T13:05:11.070Z,96153.13
2024-02-09T13:07:38.244Z,96153.91
2024-02-09T13:10:05.409Z,96153.06
2024-02-09T13:12:38.924Z,96145.22
2024-02-09T13:15:09.243Z,96148.25
2024-02-09T13:17:36.459Z,96147.75
2024-02-09T13:20:07.986Z,96143.44
2024-02-09T13:22:35.033Z,96140.25
2024-02-09T13:25:01.652Z,96134.00
2024-02-09T13:27:30.601Z,96133.63
2024-02-09T13:29:59.951Z,96130.91
2024-02-09T13:32:28.233Z,96135.56
2024-02-09T13:34:55.630Z,96130.50
2024-02-09T13:37:22.666Z,96134.78
2024-02-09T13:39:49.113Z,96125.44
2024-02-09T13:42:16.926Z,96127.00
2024-02-09T13:44:43.364Z,96113.00
2024-02-09T13:47:09.882Z,96118.78
2024-02-09T13:49:36.429Z,96120.31
2024-02-09T13:52:05.057Z,96121.47
2024-02-09T13:54:33.104Z,96118.31
2024-02-09T13:56:59.650Z,96113.31
2024-02-09T13:59:28.491Z,96105.94
2024-02-09T14:01:55.074Z,96114.50
2024-02-09T14:04:22.614Z,96116.44
2024-02-09T14:06:49.352Z,96113.72
2024-02-09T14:09:15.943Z,96106.72
2024-02-09T14:11:45.951Z,96101.66
2024-02-09T14:14:13.276Z,96098.59
2024-02-09T14:16:39.798Z,96103.66
2024-02-09T14:19:06.357Z,96103.28
2024-02-09T14:21:33.441Z,96099.00
2024-02-09T14:24:00.469Z,96086.56
2024-02-09T14:26:27.134Z,96093.16
2024-02-09T14:28:58.298Z,96090.44
2024-02-09T14:31:25.169Z,96085.00
2024-02-09T14:33:51.680Z,96089.66
2024-02-09T14:36:18.922Z,96084.16
2024-02-09T14:38:45.673Z,96088.78
2024-02-09T14:41:12.221Z,96084.88
2024-02-09T14:43:41.126Z,96081.75
2024-02-09T14:46:07.699Z,96080.16
2024-02-09T14:48:34.187Z,96089.81
2024-02-09T14:51:02.780Z,96089.41
2024-02-09T14:53:29.315Z,96092.47
2024-02-09T14:55:57.376Z,96094.78
2024-02-09T14:58:24.991Z,96098.63
2024-02-09T15:00:55.951Z,96093.22
2024-02-09T15:03:24.046Z,96094.00
2024-02-09T15:05:51.102Z,96098.63
2024-02-09T15:08:21.466Z,96097.47
2024-02-09T15:10:48.233Z,96085.44
2024-02-09T15:13:15.001Z,96092.44
2024-02-09T15:15:43.908Z,96098.22
2024-02-09T15:18:10.647Z,96090.06
2024-02-09T15:20:38.474Z,96091.56
2024-02-09T15:23:06.244Z,96092.72
2024-02-09T15:25:34.904Z,96087.53
2024-02-09T15:28:02.285Z,96089.84
2024-02-09T15:30:29.064Z,96082.84
2024-02-09T15:32:55.669Z,96080.50
2024-02-09T15:35:22.279Z,96079.66
2024-02-09T15:37:48.885Z,96085.81
2024-02-09T15:40:16.886Z,96078.31
2024-02-09T15:42:44.142Z,96076.31
2024-02-09T15:45:12.843Z,96079.34
2024-02-09T15:47:39.395Z,96075.34
2024-02-09T15:50:08.435Z,96075.28
2024-02-09T15:52:35.411Z,96079.84
2024-02-09T15:55:02.298Z,96077.00
2024-02-09T15:57:30.475Z,96071.88
2024-02-09T15:59:56.900Z,96075.28
2024-02-09T16:02:23.689Z,96077.94
2024-02-09T16:04:50.934Z,96072.88
2024-02-09T16:07:17.862Z,96073.56
2024-02-09T16:09:47.338Z,96070.81
2024-02-09T16:12:14.039Z,96078.06
2024-02-09T16:14:42.341Z,96085.44
2024-02-09T16:17:08.864Z,96080.72
2024-02-09T16:19:35.883Z,96087.63
2024-02-09T16:22:02.498Z,96100.75
2024-02-09T16:24:28.913Z,96109.25
2024-02-09T16:26:55.524Z,96113.44
2024-02-09T16:29:21.963Z,96112.25
2024-02-09T16:31:49.627Z,96119.16
2024-02-09T16:34:16.347Z,96116.72
2024-02-09T16:36:42.895Z,96108.88
2024-02-09T16:39:09.585Z,96108.00
2024-02-09T16:41:36.195Z,96108.72
2024-02-09T16:44:04.251Z,96105.94
2024-02-09T16:46:31.616Z,96106.28
2024-02-09T16:48:58.790Z,96100.00
2024-02-09T16:51:25.650Z,96104.63
2024-02-09T16:53:52.160Z,96106.13
2024-02-09T16:59:02.749Z,96098.28
2024-02-09T17:01:29.364Z,96101.31
2024-02-09T17:03:56.032Z,96101.69
2024-02-09T17:06:22.845Z,96103.59
2024-02-09T17:08:49.348Z,96112.88
2024-02-09T17:11:15.969Z,96111.31
2024-02-09T17:13:42.517Z,96107.81
2024-02-09T17:16:09.096Z,96104.31
2024-02-09T17:18:36.163Z,96108.94
2024-02-09T17:21:02.739Z,96111.63
2024-02-09T17:23:29.311Z,96119.44
2024-02-09T17:25:55.867Z,96115.16
2024-02-09T17:28:22.547Z,96115.16
2024-02-09T17:30:49.185Z,96112.00
2024-02-09T17:33:15.939Z,96110.53
2024-02-09T17:35:42.821Z,96114.00
2024-02-09T17:38:10.197Z,96112.09
2024-02-09T17:40:36.863Z,96113.66
2024-02-09T17:43:03.513Z,96115.59
2024-02-09T17:45:30.078Z,96113.66
2024-02-09T17:47:56.637Z,96105.88
2024-02-09T17:50:23.359Z,96103.19
2024-02-09T17:52:53.634Z,96098.91
2024-02-09T17:55:20.925Z,96092.69
2024-02-09T17:57:50.826Z,96097.31
2024-02-09T18:00:18.352Z,96093.03
2024-02-09T18:02:45.037Z,96094.19
2024-02-09T18:05:12.285Z,96090.25
2024-02-09T18:07:40.136Z,96093.31
2024-02-09T18:10:06.860Z,96092.09
2024-02-09T18:12:33.616Z,96092.44
2024-02-09T18:15:00.091Z,96087.72
2024-02-09T18:17:27.364Z,96091.94
2024-02-09T18:19:53.922Z,96095.00
2024-02-09T18:22:20.670Z,96086.88
2024-02-09T18:24:48.315Z,96095.69
2024-02-09T18:27:15.359Z,96091.41
2024-02-09T18:29:41.861Z,96093.69
2024-02-09T18:32:08.656Z,96101.81
2024-02-09T18:34:36.446Z,96089.78
2024-02-09T18:37:03.180Z,96089.78
2024-02-09T18:39:29.622Z,96092.78
2024-02-09T18:41:56.165Z,96079.59
2024-02-09T18:44:22.856Z,96081.50
2024-02-09T18:46:54.434Z,96086.94
2024-02-09T18:49:24.981Z,96083.78
2024-02-09T18:51:52.534Z,96079.53
2024-02-09T18:54:19.268Z,96086.50
2024-02-09T18:56:46.122Z,96089.56
2024-02-09T18:59:12.879Z,96091.47
2024-02-09T19:01:44.500Z,96091.03
2024-02-09T19:04:14.018Z,96089.91
2024-02-09T19:06:42.400Z,96086.75
2024-02-09T19:09:12.728Z,96080.91
2024-02-09T19:11:39.743Z,96086.34
2024-02-09T19:14:06.349Z,96085.09
2024-02-09T19:16:33.608Z,96080.81
2024-02-09T19:19:02.712Z,96087.38
2024-02-09T19:21:30.831Z,96085.38
2024-02-09T19:23:58.318Z,96079.19
2024-02-09T19:26:26.195Z,96081.44
2024-02-09T19:28:53.332Z,96084.84
2024-02-09T19:31:20.762Z,96083.72
2024-02-09T19:33:48.523Z,96089.91
2024-02-09T19:36:20.786Z,96086.78
2024-02-09T19:38:48.163Z,96087.56
2024-02-09T19:41:16.324Z,96089.91
2024-02-09T19:43:44.003Z,96085.28
2024-02-09T19:46:11.300Z,96085.28
2024-02-09T19:48:38.006Z,96087.19
2024-02-09T19:51:05.540Z,96077.50
2024-02-09T19:53:31.964Z,96076.72
2024-02-09T19:55:58.835Z,96084.06
2024-02-09T19:58:25.468Z,96080.56
2024-02-09T20:00:52.600Z,96086.00
2024-02-09T20:03:22.016Z,96086.00
2024-02-09T20:05:50.174Z,96081.72
2024-02-09T20:08:22.752Z,96082.81
2024-02-09T20:10:49.628Z,96083.97
2024-02-09T20:13:18.262Z,96083.97
2024-02-09T20:15:44.989Z,96086.66
2024-02-09T20:18:11.521Z,96085.09
2024-02-09T20:20:39.415Z,96073.50
2024-02-09T20:23:06.327Z,96074.28
2024-02-09T20:25:33.155Z,96078.91
2024-02-09T20:27:59.679Z,96084.31
2024-02-09T20:30:26.544Z,96075.00
2024-02-09T20:32:54.041Z,96078.03
2024-02-09T20:35:20.744Z,96073.41
2024-02-09T20:37:47.452Z,96079.63
2024-02-09T20:40:16.467Z,96073.41
2024-02-09T20:42:44.238Z,96073.41
2024-02-09T20:45:12.633Z,96069.13
2024-02-09T20:47:48.646Z,96081.09
2024-02-09T20:50:19.114Z,96067.91
2024-02-09T20:52:50.816Z,96073.31
2024-02-09T20:55:21.560Z,96069.84
2024-02-09T20:57:49.367Z,96069.84
2024-02-09T21:00:20.872Z,96072.53
2024-02-09T21:02:50.754Z,96061.72
2024-02-09T21:05:20.646Z,96061.72
2024-02-09T21:07:48.728Z,96063.28
2024-02-09T21:10:17.104Z,96054.28
2024-02-09T21:12:47.874Z,96065.19
2024-02-09T21:15:15.157Z,96068.25
2024-02-09T21:17:42.381Z,96060.16
2024-02-09T21:20:11.240Z,96064.06
2024-02-09T21:22:39.261Z,96054.75
2024-02-09T21:25:07.610Z,96043.91
2024-02-09T21:27:34.145Z,96046.16
2024-02-09T21:30:05.688Z,96045.38
2024-02-09T21:32:32.985Z,96046.16
2024-02-09T21:34:59.489Z,96044.59
2024-02-09T21:37:27.331Z,96040.69
2024-02-09T21:39:57.175Z,96045.31
2024-02-09T21:42:27.856Z,96037.53
2024-02-09T21:45:00.299Z,96036.75
2024-02-09T21:47:30.216Z,96035.16
2024-02-09T21:49:58.541Z,96035.16
2024-02-09T21:52:25.119Z,96044.00
2024-02-09T21:54:52.795Z,96036.59
2024-02-09T21:57:22.145Z,96037.25
2024-02-09T21:59:48.609Z,96033.41
2024-02-09T22:02:20.591Z,96025.66
2024-02-09T22:04:47.951Z,96042.69
2024-02-09T22:07:14.545Z,96041.09
2024-02-09T22:09:41.664Z,96037.25
2024-02-09T22:12:08.402Z,96036.84
2024-02-09T22:14:36.760Z,96031.06
2024-02-09T22:17:07.776Z,96027.94
2024-02-09T22:19:35.481Z,96039.53
2024-02-09T22:22:02.731Z,96040.69
2024-02-09T22:24:29.328Z,96042.25
2024-02-09T22:26:58.919Z,96035.28
2024-02-09T22:29:26.177Z,96039.09
2024-02-09T22:31:52.753Z,96036.38
2024-02-09T22:34:21.562Z,96037.97
2024-02-09T22:36:48.266Z,96041.00
2024-02-09T22:39:14.727Z,96047.19
2024-02-09T22:41:48.403Z,96034.81
2024-02-09T22:44:19.982Z,96034.81
2024-02-09T22:46:52.242Z,96033.25
2024-02-09T22:49:18.762Z,96029.75
2024-02-09T22:51:45.230Z,96026.28
2024-02-09T22:54:11.709Z,96030.09
2024-02-09T22:56:40.752Z,96022.34
2024-02-09T22:59:07.212Z,96026.97
2024-02-09T23:01:33.708Z,96026.97
2024-02-09T23:04:00.919Z,96019.53
2024-02-09T23:06:30.952Z,96022.25
2024-02-09T23:08:58.223Z,96017.19
2024-02-09T23:11:25.855Z,96019.13
2024-02-09T23:13:53.008Z,96014.84
2024-02-09T23:16:19.726Z,96017.53
2024-02-09T23:18:46.283Z,96016.41
2024-02-09T23:21:12.833Z,96015.97
2024-02-09T23:23:40.888Z,96024.09
2024-02-09T23:26:11.385Z,96019.78
2024-02-09T23:28:37.952Z,96023.63
2024-02-09T23:31:04.840Z,96023.63
2024-02-09T23:33:31.463Z,96024.78
2024-02-09T23:35:58.926Z,96024.00
2024-02-09T23:38:25.851Z,96029.41
2024-02-09T23:40:55.305Z,96028.63
2024-02-09T23:43:23.017Z,96026.63
2024-02-09T23:45:52.809Z,96039.00
2024-02-09T23:48:21.401Z,96025.47
2024-02-09T23:50:49.322Z,96030.09
2024-02-09T23:53:17.746Z,96038.22
2024-02-09T23:55:45.142Z,96035.84
2024-02-09T23:58:12.280Z,96041.72
